Estación Meteorológica Peña el Pijo (Robertgarden) [ 06/24/19 12:42:06 CEST ]

Fecha Hora Presion(HPa) Temp (°C) Humedad % Rocio (°C) Viento ( m/s) Direccion Lluvia 1Hora(mm) Lluvia 24H(mm) LLuvia Total(mm)
2019-Feb-27 01:01:43 1018.100 1.9 63 -4.4         183.37
2019-Feb-27 02:03:29 1018.000 1.8 64 -4.3         183.37
2019-Feb-27 03:01:40 1017.700 1.6 65 -4.3         183.37
2019-Feb-27 04:01:45 1017.200 1.6 66 -4.1         183.37
2019-Feb-27 05:01:41 1017.400 1.3 68 -4.0         183.37
2019-Feb-27 06:03:10 1017.200 0.9 69 -4.2         183.37
2019-Feb-27 07:01:53 1016.900 0.7 69 -4.4         183.37
2019-Feb-27 08:01:53 1017.300 0.2 70 -4.6         183.37
2019-Feb-27 09:02:08 1017.600 2.9 71 -1.8         183.37
2019-Feb-27 10:01:48 1017.600 10.4 46 -0.8         183.37
2019-Feb-27 11:01:38 1017.400 16.3 30 -1.3         183.37
2019-Feb-27 12:01:49 1017.300 18.7 23 -3.1         183.37
2019-Feb-27 13:01:47 1016.800 19.6 22 -2.9         183.37
2019-Feb-27 14:01:46 1016.000 20.4 20 -3.3         183.37
2019-Feb-27 15:01:58 1015.400 21.1 19 -3.6         183.37
2019-Feb-27 16:01:39 1015.400 22.1 19 -2.8         183.37
2019-Feb-27 17:01:36 1015.200 20.5 19 -4.1 0.7 NNE     183.37
2019-Feb-27 18:01:51 1015.200 18.2 20 -5.1         183.37
2019-Feb-27 19:01:48 1016.000 14.9 24 -5.7         183.37
2019-Feb-27 20:01:50 1016.600 10.6 31 -5.9         183.37
2019-Feb-27 21:01:53 1016.700 7.6 37 -6.3         183.37
2019-Feb-27 22:01:48 1017.100 6.8 45 -4.4         183.37
2019-Feb-27 23:01:43 1017.400 5.6 51 -3.8         183.37

Temperatura Máxima:22°    Temperatura Mínima:
Presión Máxima:1018.100 Hpa    Presión Mínima:1015.200 Hpa


Volver